• Join FlightAware (Why Join?)
  • Login
  • US Flag 
08:30AM EDT


 

Airport Tracker/Info


-or-


 

Live Flight TrackerFlight Track Log ✈ N28JK ✈ 04-Jul-2013 ✈ KVRB - 1N7

Flight Track Log - Related Links

Times and Time Zones

All times are in EDT time to prevent confusion due to time zone crossing. See the N28JK flight status page for this flight to view local times or setup timezone preferences in your user account.

Time Position Orientation Groundspeed Altitude Reporting Facility
EDT Latitude Longitude Course Direction KTS MPH feet Rate Location/Type
08:20AM 27.6578 -80.4042 319° Northwest 257 296 1,000  Level Miami Center
08:21AM 27.6917 -80.3886 22° Northeast 177 204 2,700 1,680 Climbing Miami Center
08:22AM 27.7331 -80.4064 339° North 149 171 4,500 1,740 Climbing Miami Center
08:23AM 27.7697 -80.4358 325° Northwest 154 177 6,300 1,860 Climbing Miami Center
08:24AM 27.8047 -80.4625 326° Northwest 154 177 8,200 1,860 Climbing Miami Center
08:25AM 27.9752 -80.7585 319° Northwest  Level FlightAware Approximate
08:25AM 27.8225 -80.5031 296° West 154 177 10,000  Level Miami Center
08:26AM 27.8400 -80.5483 294° West 161 185 11,800 1,980 Climbing Miami Center
08:27AM 27.8808 -80.5847 322° Northwest 161 185 14,000 1,920 Climbing Miami Center
08:28AM 27.9175 -80.6167 322° Northwest 167 192 15,700 1,560 Climbing Miami Center
08:29AM 27.9522 -80.6436 326° Northwest 172 198 17,200 1,380 Climbing Miami Center
08:30AM 27.9994 -80.6781 327° Northwest 172 198 18,500 1,200 Climbing Miami Center
08:31AM 28.0403 -80.7122 324° Northwest 177 204 19,700 1,200 Climbing Miami Center
08:32AM 28.0811 -80.7467 323° Northwest 177 204 21,000 1,200 Climbing Miami Center
08:33AM 28.1197 -80.7856 318° Northwest 182 209 22,200 1,200 Climbing Miami Center
08:34AM 28.1603 -80.8247 320° Northwest 182 209 23,400 1,080 Climbing Miami Center
08:35AM 28.1989 -80.8592 322° Northwest 182 209 24,400 1,020 Climbing Miami Center
08:36AM 28.2353 -80.9006 315° West 188 216 25,500 960 Climbing Miami Center
08:37AM 28.2675 -80.9417 312° West 183 211 26,400 720 Climbing Miami Center
08:38AM 28.2997 -80.9875 309° West 177 204 27,000 240 Climbing Miami Center
08:39AM 28.3400 -81.0386 312° West 192 221 27,000  Level Miami Center
08:40AM 28.3781 -81.0942 308° West 216 249 27,000  Level Miami Center
08:41AM 28.4222 -81.1503 312° West 230 265 27,000  Level Miami Center
08:42AM 28.4683 -81.2111 311° West 240 276 27,000  Level Miami Center
08:43AM 28.5103 -81.2694 309° West 240 276 27,000  Level Miami Center
08:44AM 28.5544 -81.3278 311° West 240 276 27,000  Level Miami Center
08:45AM 28.6056 -81.3653 327° Northwest 226 260 27,000  Level Miami Center
08:46AM 28.6622 -81.3511 12° North 202 232 27,000  Level Miami Center
08:47AM 28.7439 -81.3533 359° North 230 265 27,000  Level Jacksonville Center
08:48AM 28.8108 -81.3619 354° North 236 272 27,000  Level Jacksonville Center
08:49AM 28.8756 -81.3656 357° North 236 272 27,000  Level Jacksonville Center
08:50AM 28.9422 -81.3742 354° North 236 272 27,000  Level Jacksonville Center
08:51AM 29.0092 -81.3803 355° North 236 272 27,000  Level Jacksonville Center
08:52AM 29.0781 -81.3861 356° North 236 272 27,000  Level Jacksonville Center
08:53AM 29.1492 -81.3947 354° North 235 270 27,000  Level Jacksonville Center
08:54AM 29.2119 -81.4008 355° North 240 276 27,000  Level Jacksonville Center
08:55AM 29.2786 -81.4047 357° North 235 270 27,000  Level Jacksonville Center
08:56AM 29.3456 -81.4108 355° North 235 270 27,000  Level Jacksonville Center
08:57AM 29.4144 -81.4144 357° North 235 270 27,000  Level Jacksonville Center
08:58AM 29.4856 -81.4253 352° North 235 270 27,000  Level Jacksonville Center
08:59AM 29.5547 -81.4314 356° North 235 270 27,000 -60 Level Jacksonville Center
09:00AM 29.6214 -81.4375 355° North 235 270 26,900  Descending Jacksonville Center
09:01AM 29.6883 -81.4439 355° North 235 270 27,000  Climbing Jacksonville Center
09:02AM 29.7572 -81.4522 354° North 235 270 27,000  Level Jacksonville Center
09:03AM 29.8222 -81.4586 355° North 235 270 27,000  Level Jacksonville Center
09:04AM 29.8911 -81.4672 354° North 235 270 27,000  Level Jacksonville Center
09:05AM 29.9600 -81.4708 357° North 235 270 27,000  Level Jacksonville Center
09:06AM 30.0289 -81.4772 355° North 235 270 27,000  Level Jacksonville Center
09:07AM 30.0917 -81.4833 355° North 242 278 27,000  Level Jacksonville Center
09:08AM 30.1586 -81.4897 355° North 242 278 27,000  Level Jacksonville Center
09:09AM 30.2275 -81.4983 354° North 242 278 27,000  Level Jacksonville Center
09:10AM 30.3008 -81.5044 356° North 247 284 27,000  Level Jacksonville Center
09:11AM 30.3694 -81.4986 North 252 290 27,000  Level Jacksonville Center
09:12AM 30.4361 -81.4758 16° North 252 290 27,000  Level Jacksonville Center
09:13AM 30.5047 -81.4531 16° North 252 290 27,000  Level Jacksonville Center
09:14AM 30.5733 -81.4306 16° North 252 290 27,000  Level Jacksonville Center
09:15AM 30.6419 -81.4053 18° North 257 296 27,000  Level Jacksonville Center
09:16AM 30.7128 -81.3825 15° North 257 296 27,000  Level Jacksonville Center
09:17AM 30.7814 -81.3572 18° North 257 296 27,000  Level Jacksonville Center
09:18AM 30.8519 -81.3367 14° North 257 296 27,000  Level Jacksonville Center
09:19AM 30.9206 -81.3039 22° Northeast 257 296 27,000  Level Jacksonville Center
09:20AM 30.9847 -81.2617 29° Northeast 257 296 27,000  Level Jacksonville Center
09:21AM 31.0469 -81.2194 30° Northeast 257 296 27,000  Level Jacksonville Center
09:22AM 31.1131 -81.1819 26° Northeast 262 302 27,000  Level Jacksonville Center
09:23AM 31.1794 -81.1417 27° Northeast 262 302 27,000  Level Jacksonville Center
09:24AM 31.2436 -81.0994 29° Northeast 262 302 27,000  Level Jacksonville Center
09:25AM 31.3097 -81.0592 27° Northeast 262 302 27,000  Level Jacksonville Center
09:26AM 31.3761 -81.0164 29° Northeast 262 302 27,000  Level Jacksonville Center
09:27AM 31.4464 -80.9689 30° Northeast 262 302 27,000  Level Jacksonville Center
09:28AM 31.5103 -80.9283 28° Northeast 262 302 27,000  Level Jacksonville Center
09:29AM 31.5703 -80.8931 27° Northeast 262 302 27,000  Level Jacksonville Center
09:30AM 31.6406 -80.8478 29° Northeast 262 302 27,000  Level Jacksonville Center
09:31AM 31.7067 -80.8047 29° Northeast 262 302 27,000  Level Jacksonville Center
09:32AM 31.7728 -80.7617 29° Northeast 262 302 27,000  Level Jacksonville Center
09:33AM 31.8369 -80.7211 28° Northeast 262 302 27,000  Level Jacksonville Center
09:34AM 31.8989 -80.6828 28° Northeast 262 302 27,000  Level Jacksonville Center
09:35AM 31.9689 -80.6372 29° Northeast 262 302 27,000  Level Jacksonville Center
09:36AM 32.0350 -80.5964 28° Northeast 262 302 27,000  Level Jacksonville Center
09:37AM 32.0928 -80.5581 29° Northeast 262 302 27,000  Level Jacksonville Center
09:38AM 32.1547 -80.5122 32° Northeast 262 302 27,000  Level Jacksonville Center
09:39AM 32.2142 -80.4617 36° Northeast 262 302 27,000  Level Jacksonville Center
09:40AM 32.2758 -80.4133 34° Northeast 262 302 27,000  Level Jacksonville Center
09:41AM 32.3375 -80.3675 32° Northeast 262 302 27,000  Level Jacksonville Center
09:42AM 32.4014 -80.3214 31° Northeast 262 302 27,000  Level Jacksonville Center
09:43AM 32.4631 -80.2728 34° Northeast 262 302 27,000  Level Jacksonville Center
09:44AM 32.5225 -80.2242 35° Northeast 262 302 27,000  Level Jacksonville Center
09:45AM 32.5819 -80.1758 34° Northeast 257 296 27,000  Level Jacksonville Center
09:46AM 32.6436 -80.1269 34° Northeast 262 302 27,000  Level Jacksonville Center
09:47AM 32.7031 -80.0783 35° Northeast 262 302 27,000  Level Jacksonville Center
09:48AM 32.7647 -80.0294 34° Northeast 257 296 27,000  Level Jacksonville Center
09:49AM 32.8239 -79.9806 35° Northeast 257 296 27,000  Level Jacksonville Center
09:50AM 32.8856 -79.9317 34° Northeast 257 296 27,000  Level Jacksonville Center
09:51AM 32.9447 -79.8778 37° Northeast 262 302 27,000  Level Jacksonville Center
09:52AM 33.0019 -79.8236 38° Northeast 262 302 27,000  Level Jacksonville Center
09:53AM 33.0611 -79.7672 39° Northeast 262 302 27,000  Level Jacksonville Center
09:54AM 33.1203 -79.7131 37° Northeast 267 307 27,000  Level Jacksonville Center
09:55AM 33.1750 -79.6539 42° Northeast 267 307 27,000  Level Jacksonville Center
09:56AM 33.2278 -79.5950 43° Northeast 267 307 27,000  Level Jacksonville Center
09:57AM 33.2825 -79.5333 43° Northeast 262 302 27,000  Level Jacksonville Center
09:58AM 33.3372 -79.4742 42° Northeast 257 296 27,000  Level Jacksonville Center
09:59AM 33.3961 -79.4097 42° Northeast 262 302 27,000  Level Jacksonville Center
10:00AM 33.4528 -79.3500 41° Northeast 262 302 27,000  Level Jacksonville Center
10:01AM 33.5097 -79.2931 40° Northeast 257 296 27,000  Level Jacksonville Center
10:02AM 33.5750 -79.2481 30° Northeast 257 296 27,000  Level Jacksonville Center
10:03AM 33.6453 -79.2178 20° North 257 296 27,000  Level Jacksonville Center
10:04AM 33.7006 -79.1856 26° Northeast 262 302 27,000  Level Jacksonville Center
10:05AM 33.7725 -79.1475 24° Northeast 262 302 27,000  Level Jacksonville Center
10:06AM 33.8422 -79.1094 24° Northeast 262 302 27,000  Level Jacksonville Center
10:07AM 33.9100 -79.0714 25° Northeast 267 307 27,000  Level Jacksonville Center
10:08AM 33.9797 -79.0358 23° Northeast 267 307 27,000  Level Jacksonville Center
10:09AM 34.0475 -78.9978 25° Northeast 272 313 27,000  Level Jacksonville Center
10:10AM 34.1172 -78.9622 23° Northeast 272 313 27,000  Level Jacksonville Center
10:13AM 34.2750 -78.8742 25° Northeast 260 299 27,000  Level Washington Center
10:14AM 34.3447 -78.8367 24° Northeast 254 292 27,000  Level Washington Center
10:15AM 34.4147 -78.7992 24° Northeast 267 307 27,000  Level Washington Center
10:16AM 34.4825 -78.7614 25° Northeast 268 308 27,000  Level Washington Center
10:17AM 34.5525 -78.7164 28° Northeast 258 297 27,000  Level Washington Center
10:18AM 34.6308 -78.6714 25° Northeast 280 322 27,000  Level Washington Center
10:19AM 34.6942 -78.6383 23° Northeast 275 316 27,000  Level Washington Center
10:20AM 34.7706 -78.5958 25° Northeast 275 316 27,000  Level Washington Center
10:21AM 34.8339 -78.5600 25° Northeast 275 316 27,000  Level Washington Center
10:22AM 34.9039 -78.5222 24° Northeast 280 322 27,000  Level Washington Center
10:23AM 34.9756 -78.4817 25° Northeast 280 322 27,000  Level Washington Center
10:24AM 35.0456 -78.4411 25° Northeast 280 322 27,000  Level Washington Center
10:25AM 35.1153 -78.4003 26° Northeast 280 322 27,000  Level Washington Center
10:26AM 35.1872 -78.3597 25° Northeast 280 322 27,000  Level Washington Center
10:27AM 35.2592 -78.3189 25° Northeast 280 322 27,000  Level Washington Center
10:28AM 35.3311 -78.2781 25° Northeast 280 322 27,000  Level Washington Center
10:29AM 35.4114 -78.2322 25° Northeast 280 322 27,000  Level Washington Center
10:30AM 35.4831 -78.1939 24° Northeast 280 322 27,000  Level Washington Center
10:31AM 35.5569 -78.1503 26° Northeast 280 322 27,000  Level Washington Center
10:32AM 35.6267 -78.1117 24° Northeast 280 322 27,000  Level Washington Center
10:33AM 35.6986 -78.0706 25° Northeast 280 322 27,000  Level Washington Center
10:34AM 35.7725 -78.0292 24° Northeast 280 322 27,000  Level Washington Center
10:35AM 35.8442 -77.9878 25° Northeast 280 322 27,000  Level Washington Center
10:36AM 35.9158 -77.9464 25° Northeast 280 322 27,000  Level Washington Center
10:37AM 35.9878 -77.9050 25° Northeast 280 322 27,000  Level Washington Center
10:38AM 36.0594 -77.8633 25° Northeast 280 322 27,000  Level Washington Center
10:39AM 36.1331 -77.8242 23° Northeast 280 322 27,000  Level Washington Center
10:40AM 36.2047 -77.7853 24° Northeast 280 322 27,000  Level Washington Center
10:41AM 36.2767 -77.7383 28° Northeast 280 322 27,000  Level Washington Center
10:42AM 36.3483 -77.6989 24° Northeast 280 322 27,000  Level Washington Center
10:43AM 36.4200 -77.6569 25° Northeast 280 322 27,000  Level Washington Center
10:44AM 36.4894 -77.6147 26° Northeast 274 315 27,000  Level Washington Center
10:45AM 36.5611 -77.5728 25° Northeast 274 315 27,000  Level Washington Center
10:46AM 36.6328 -77.5306 25° Northeast 279 321 27,000  Level Washington Center
10:47AM 36.7044 -77.4883 25° Northeast 279 321 27,000  Level Washington Center
10:48AM 36.7781 -77.4461 25° Northeast 279 321 27,000  Level Washington Center
10:49AM 36.8497 -77.4036 25° Northeast 279 321 27,000  Level Washington Center
10:50AM 36.9233 -77.3586 26° Northeast 279 321 27,000  Level Washington Center
10:51AM 36.9928 -77.3158 26° Northeast 279 321 27,000  Level Washington Center
10:52AM 37.0644 -77.2733 25° Northeast 279 321 27,000 -180 Level Washington Center
10:53AM 37.1400 -77.2306 24° Northeast 279 321 26,700 -360 Descending Washington Center
10:54AM 37.2158 -77.1828 27° Northeast 286 329 26,300 -480 Descending Washington Center
10:55AM 37.2831 -77.1422 26° Northeast 286 329 25,800 -540 Descending Washington Center
10:56AM 37.3692 -77.0917 25° Northeast 298 343 25,300 -420 Descending Washington Center
10:57AM 37.4364 -77.0539 24° Northeast 298 343 25,000 -180 Descending Washington Center
10:58AM 37.5183 -77.0136 21° North 298 343 25,000  Level Washington Center
10:59AM 37.5875 -76.9703 26° Northeast 291 335 25,000  Level Washington Center
11:00AM 37.6589 -76.9297 24° Northeast 286 329 25,000  Level Washington Center
11:01AM 37.7408 -76.8864 23° Northeast 286 329 25,000  Level Washington Center
11:02AM 37.8122 -76.8456 24° Northeast 281 323 25,000 -240 Level Washington Center
11:03AM 37.8878 -76.8022 24° Northeast 281 323 24,600 -480 Descending Washington Center
11:04AM 37.9653 -76.7586 24° Northeast 281 323 24,100 -600 Descending Washington Center
11:05AM 38.0386 -76.7150 25° Northeast 286 329 23,500 -600 Descending Washington Center
11:06AM 38.1181 -76.7056 North 286 329 23,000 -300 Descending Washington Center
11:07AM 38.1972 -76.7042 North 286 329 22,900  Descending Washington Center
11:08AM 38.2786 -76.7000 North 281 323 23,000 60 Climbing Washington Center
11:09AM 38.3453 -76.7008 359° North 281 323 23,100  Climbing Washington Center
11:10AM 38.4350 -76.6969 North 281 323 23,100  Level Washington Center
11:11AM 38.5122 -76.6928 North 276 318 23,100  Level Washington Center
11:12AM 38.5914 -76.6886 North 276 318 23,100  Level Washington Center
11:13AM 38.6708 -76.6844 North 276 318 23,100 -180 Level Washington Center
11:14AM 38.7500 -76.6831 North 276 318 22,800 -420 Descending Washington Center
11:15AM 38.8292 -76.6789 North 276 318 22,300 -600 Descending Washington Center
11:16AM 38.9086 -76.6719 North 276 318 21,700 -600 Descending Washington Center
11:17AM 38.9897 -76.6706 North 276 318 21,200 -600 Descending Washington Center
11:18AM 39.0692 -76.6664 North 276 318 20,600 -600 Descending Washington Center
11:20AM 39.2261 -76.6622 North 280 322 19,400 -480 Descending New York Center
11:21AM 39.2972 -76.6547 North 269 310 19,100 -180 Descending New York Center
11:22AM 39.3728 -76.6475 North 269 310 19,100  Level New York Center
11:23AM 39.4400 -76.6369 North 258 297 19,100  Level New York Center
11:24AM 39.4992 -76.5800 37° Northeast 244 281 19,100  Level New York Center
11:25AM 39.5525 -76.5142 44° Northeast 244 281 19,100  Level New York Center
11:26AM 39.6094 -76.4569 38° Northeast 249 287 19,100  Level New York Center
11:27AM 39.6644 -76.3994 39° Northeast 254 292 19,100  Level New York Center
11:28AM 39.7214 -76.3392 39° Northeast 254 292 19,100  Level New York Center
11:29AM 39.7764 -76.2786 40° Northeast 254 292 19,100  Level New York Center
11:30AM 39.8353 -76.2211 37° Northeast 254 292 19,100  Level New York Center
11:31AM 39.8944 -76.1608 38° Northeast 264 304 19,100 -120 Level New York Center
11:32AM 39.9539 -76.0922 41° Northeast 264 304 18,900 -480 Descending New York Center
11:33AM 40.0106 -76.0342 38° Northeast 264 304 18,200 -540 Descending New York Center
11:34AM 40.0656 -75.9731 40° Northeast 264 304 17,900 -480 Descending New York Center
11:35AM 40.1217 -75.9286 31° Northeast 264 304 17,300 -720 Descending New York Center
11:36AM 40.1864 -75.8761 32° Northeast 251 289 16,500 -720 Descending New York Center
11:37AM 40.2492 -75.8264 31° Northeast 256 295 16,000 -240 Descending New York Center
11:38AM 40.2997 -75.7647 43° Northeast 244 281 16,100 -180 Climbing New York Center
11:39AM 40.3456 -75.7136 40° Northeast 239 275 15,700 -600 Descending New York Center
11:40AM 40.4003 -75.6522 40° Northeast 239 275 15,000 -900 Descending New York Center
11:41AM 40.4569 -75.5881 41° Northeast 244 281 14,000 -900 Descending New York Center
11:42AM 40.5031 -75.5311 43° Northeast 244 281 13,200 -960 Descending New York Center
11:43AM 40.5553 -75.4747 39° Northeast 244 281 12,200 -960 Descending New York Center
11:44AM 40.6056 -75.4153 42° Northeast 244 281 11,300 -960 Descending New York Center
11:45AM 40.6558 -75.3611 39° Northeast 238 274 10,300 -1,200 Descending New York Center
11:46AM 40.7058 -75.3017 42° Northeast 225 259 9,000 -1,200 Descending New York Center
11:47AM 40.7475 -75.2522 42° Northeast 219 252 8,000 -1,200 Descending New York Center
11:48AM 40.8042 -75.2394 10° North 198 228 6,700 -1,680 Descending New York Center
11:49AM 40.8628 -75.2325 North 193 222 4,800 -1,560 Descending New York Center
11:50AM 40.8961 -75.1769 52° Northeast 180 207 3,600 -840 Descending New York Center
11:51AM 40.9211 -75.1208 59° Northeast 173 199 3,200 -600 Descending New York Center
11:52AM 40.9417 -75.0672 63° Northeast 178 205 2,500 -780 Descending New York Center
11:53AM 40.9669 -75.0031 62° Northeast 173 199 1,700 -540 Descending New York Center
11:54AM 40.9772 -74.9542 74° East 167 192 1,500 2,580 Descending New York Center
11:55AM 40.9936 -74.9003 68° East 167 192 7,000 5,460 Climbing New York Center